Terminal Aerodrome Forecast
Issued by NWS Upton, NY

Home | Current Version | Previous Version | Text Only | Print | Product List | Glossary On
Versions: 1 2 3 4 5 6 7 8 9 10 11 12 13 14 15 16 17 18 19 20 21 22 23 24 25 26 27 28 29 30
000
FTUS41 KOKX 040200 AAB
TAFBDR
TAF AMD
KBDR 040216Z 0402/0424 17007KT 3SM FZRA SCT006 OVC012
     FM040500 21007KT 3SM RA BR BKN005 OVC010
     FM040600 24007KT 3SM -SHRA BR OVC004 WS020/25050KT
     FM041100 27006KT 3SM -RA BR OVC008
     FM041700 27006KT 5SM -RA BR BKN008 BKN050=

USA.gov is the U.S. government's official web portal to all federal, state and local government web resources and services.